Terminal Aerodrome Forecast
Issued by NWS Norman, OK

Home | Current Version | Previous Version | Text Only | Print | Product List | Glossary On
Versions: 1 2 3 4 5 6 7 8 9 10 11 12 13 14 15
000
FTUS44 KOUN 261134
TAFOKC
TAF
KOKC 261134Z 2612/2712 36015G22KT P6SM OVC015
     FM261600 35018G26KT P6SM BKN030
     FM262000 32014G20KT P6SM BKN050
     FM262300 31008KT P6SM SKC
     FM270600 19004KT P6SM SKC=

USA.gov is the U.S. government's official web portal to all federal, state and local government web resources and services.